Terminal Aerodrome Forecast
Issued by NWS

Home | Current Version | Previous Version | Text Only | Print | Product List | Glossary On
Versions: 1 2 3 4 5 6 7 8 9 10 11 12 13 14 15
000
FTUS45 KTFX 240500
TAFHVR
TAF
KHVR 240520Z 2406/2506 24012KT P6SM SCT180
     FM242000 24010G20KT P6SM BKN070
     FM250200 26010KT P6SM VCSH BKN050=

USA.gov is the U.S. government's official web portal to all federal, state and local government web resources and services.